createdAt,value
2019-02-12T00:01:35.634Z,99430.74
2019-02-12T00:04:02.239Z,99434.18
2019-02-12T00:06:28.823Z,99435.87
2019-02-12T00:08:56.548Z,99444.48
2019-02-12T00:11:25.075Z,99437.91
2019-02-12T00:13:51.587Z,99444.39
2019-02-12T00:16:18.206Z,99453.80
2019-02-12T00:18:45.983Z,99451.33
2019-02-12T00:21:13.098Z,99450.13
2019-02-12T00:23:39.861Z,99453.57
2019-02-12T00:26:06.410Z,99439.02
2019-02-12T00:28:33.152Z,99425.17
2019-02-12T00:31:02.373Z,99430.45
2019-02-12T00:33:29.325Z,99436.00
2019-02-12T00:35:56.250Z,99443.78
2019-02-12T00:38:22.985Z,99457.69
2019-02-12T00:40:49.934Z,99443.84
2019-02-12T00:43:16.868Z,99448.61
2019-02-12T00:45:43.447Z,99446.50
2019-02-12T00:48:10.072Z,99442.48
2019-02-12T00:50:36.948Z,99427.80
2019-02-12T00:53:03.549Z,99430.77
2019-02-12T00:55:30.347Z,99436.32
2019-02-12T00:57:56.975Z,99433.79
2019-02-12T01:00:24.879Z,99447.67
2019-02-12T01:02:52.197Z,99447.60
2019-02-12T01:05:19.885Z,99445.95
2019-02-12T01:07:46.828Z,99448.96
2019-02-12T01:10:13.570Z,99448.45
2019-02-12T01:12:40.125Z,99453.24
2019-02-12T01:15:08.659Z,99457.13
2019-02-12T01:17:35.303Z,99461.87
2019-02-12T01:20:02.040Z,99465.37
2019-02-12T01:22:28.996Z,99473.15
2019-02-12T01:24:55.932Z,99478.34
2019-02-12T01:27:22.481Z,99476.52
2019-02-12T01:29:49.145Z,99473.12
2019-02-12T01:32:15.736Z,99472.41
2019-02-12T01:34:42.383Z,99472.92
2019-02-12T01:37:09.081Z,99465.59
2019-02-12T01:39:35.725Z,99475.16
2019-02-12T01:42:04.114Z,99478.92
2019-02-12T01:44:30.956Z,99473.25
2019-02-12T01:46:57.641Z,99474.97
2019-02-12T01:49:24.285Z,99469.88
2019-02-12T01:51:50.832Z,99472.83
2019-02-12T01:54:19.781Z,99470.88
2019-02-12T01:56:46.618Z,99480.83
2019-02-12T01:59:14.196Z,99482.97
2019-02-12T02:01:40.985Z,99486.05
2019-02-12T02:04:07.821Z,99494.23
2019-02-12T02:06:34.874Z,99492.12
2019-02-12T02:09:01.810Z,99487.77
2019-02-12T02:11:28.399Z,99488.20
2019-02-12T02:13:55.403Z,99478.20
2019-02-12T02:16:22.087Z,99495.55
2019-02-12T02:18:50.080Z,99504.70
2019-02-12T02:21:16.926Z,99500.75
2019-02-12T02:23:45.767Z,99497.70
2019-02-12T02:26:12.405Z,99500.68
2019-02-12T02:28:38.967Z,99493.77
2019-02-12T02:31:06.224Z,99489.87
2019-02-12T02:33:32.839Z,99493.77
2019-02-12T02:35:59.470Z,99494.06
2019-02-12T02:38:26.373Z,99496.95
2019-02-12T02:40:53.151Z,99501.36
2019-02-12T02:43:19.734Z,99496.59
2019-02-12T02:45:46.351Z,99496.14
2019-02-12T02:48:13.065Z,99500.84
2019-02-12T02:50:39.734Z,99502.20
2019-02-12T02:53:06.787Z,99506.09
2019-02-12T02:55:33.407Z,99509.62
2019-02-12T02:57:59.932Z,99512.93
2019-02-12T03:00:26.431Z,99527.20
2019-02-12T03:02:53.022Z,99546.55
2019-02-12T03:05:19.549Z,99540.48
2019-02-12T03:07:46.082Z,99552.25
2019-02-12T03:10:12.674Z,99554.39
2019-02-12T03:12:39.170Z,99560.07
2019-02-12T03:15:06.602Z,99556.14
2019-02-12T03:17:38.995Z,99551.77
2019-02-12T03:20:07.376Z,99543.50
2019-02-12T03:22:33.876Z,99546.83
2019-02-12T03:25:00.454Z,99542.83
2019-02-12T03:27:27.213Z,99543.99
2019-02-12T03:29:53.686Z,99545.22
2019-02-12T03:32:20.278Z,99547.64
2019-02-12T03:34:46.766Z,99556.33
2019-02-12T03:37:13.273Z,99568.45
2019-02-12T03:39:41.058Z,99568.38
2019-02-12T03:42:07.901Z,99571.22
2019-02-12T03:44:35.268Z,99567.67
2019-02-12T03:47:02.188Z,99579.27
2019-02-12T03:49:29.101Z,99577.17
2019-02-12T03:51:56.380Z,99576.33
2019-02-12T03:54:23.402Z,99579.80
2019-02-12T03:56:50.361Z,99570.73
2019-02-12T03:59:17.339Z,99577.17
2019-02-12T04:01:44.387Z,99573.63
2019-02-12T04:04:11.691Z,99573.36
2019-02-12T04:06:38.344Z,99573.46
2019-02-12T04:09:05.460Z,99574.86
2019-02-12T04:11:32.022Z,99569.78
2019-02-12T04:13:58.975Z,99567.96
2019-02-12T04:16:25.612Z,99573.95
2019-02-12T04:18:52.263Z,99578.34
2019-02-12T04:21:18.906Z,99579.17
2019-02-12T04:23:45.680Z,99571.81
2019-02-12T04:26:12.272Z,99575.67
2019-02-12T04:28:38.910Z,99571.36
2019-02-12T04:31:05.489Z,99570.48
2019-02-12T04:33:32.078Z,99564.80
2019-02-12T04:35:58.707Z,99564.28
2019-02-12T04:38:25.211Z,99569.02
2019-02-12T04:40:51.746Z,99563.44
2019-02-12T04:43:18.703Z,99573.36
2019-02-12T04:45:48.188Z,99578.61
2019-02-12T04:48:14.688Z,99569.78
2019-02-12T04:50:41.215Z,99564.25
2019-02-12T04:53:07.727Z,99556.50
2019-02-12T04:55:34.269Z,99553.03
2019-02-12T04:58:00.873Z,99554.30
2019-02-12T05:00:27.742Z,99555.48
2019-02-12T05:02:54.293Z,99544.20
2019-02-12T05:05:20.797Z,99542.10
2019-02-12T05:07:47.407Z,99541.57
2019-02-12T05:10:15.156Z,99549.31
2019-02-12T05:12:41.665Z,99548.47
2019-02-12T05:15:08.463Z,99548.37
2019-02-12T05:17:36.080Z,99549.55
2019-02-12T05:20:04.110Z,99551.34
2019-02-12T05:22:30.581Z,99561.26
2019-02-12T05:24:57.496Z,99562.20
2019-02-12T05:27:24.012Z,99555.20
2019-02-12T05:29:50.537Z,99565.98
2019-02-12T05:32:17.210Z,99575.52
2019-02-12T05:34:44.832Z,99568.08
2019-02-12T05:37:11.313Z,99569.42
2019-02-12T05:39:38.107Z,99577.58
2019-02-12T05:42:04.603Z,99576.28
2019-02-12T05:44:32.075Z,99583.22
2019-02-12T05:46:58.594Z,99578.11
2019-02-12T05:49:25.177Z,99579.44
2019-02-12T05:51:51.699Z,99587.11
2019-02-12T05:54:18.189Z,99588.02
2019-02-12T05:56:49.468Z,99594.00
2019-02-12T05:59:15.999Z,99600.06
2019-02-12T06:01:44.650Z,99602.70
2019-02-12T06:04:11.239Z,99609.59
2019-02-12T06:06:38.765Z,99609.03
2019-02-12T06:09:05.637Z,99604.69
2019-02-12T06:11:32.149Z,99606.28
2019-02-12T06:13:58.910Z,99602.86
2019-02-12T06:16:25.423Z,99601.87
2019-02-12T06:18:51.957Z,99607.97
2019-02-12T06:21:18.653Z,99606.63
2019-02-12T06:23:45.550Z,99609.22
2019-02-12T06:26:12.207Z,99608.50
2019-02-12T06:28:38.740Z,99612.38
2019-02-12T06:31:05.303Z,99614.97
2019-02-12T06:33:32.231Z,99619.70
2019-02-12T06:35:58.798Z,99624.89
2019-02-12T06:38:25.409Z,99619.52
2019-02-12T06:40:52.051Z,99628.96
2019-02-12T06:43:18.732Z,99633.11
2019-02-12T06:45:45.423Z,99626.55
2019-02-12T06:48:12.056Z,99637.84
2019-02-12T06:50:38.899Z,99655.52
2019-02-12T06:53:12.228Z,99665.13
2019-02-12T06:55:34.439Z,99668.80
2019-02-12T06:58:00.984Z,99671.08
2019-02-12T07:00:27.554Z,99668.75
2019-02-12T07:03:16.921Z,99679.84
2019-02-12T07:06:15.321Z,99682.43
2019-02-12T07:09:05.772Z,99690.20
2019-02-12T07:12:03.988Z,99701.87
2019-02-12T07:14:53.247Z,99702.86
2019-02-12T07:17:45.409Z,99701.34
2019-02-12T07:20:52.582Z,99692.62
2019-02-12T07:23:57.093Z,99692.69
2019-02-12T07:26:35.137Z,99696.70
2019-02-12T07:29:38.120Z,99693.39
2019-02-12T07:32:37.534Z,99697.39
2019-02-12T07:35:26.722Z,99702.27
2019-02-12T07:38:24.441Z,99706.74
2019-02-12T07:41:22.802Z,99710.63
2019-02-12T07:44:06.794Z,99710.78
2019-02-12T07:47:10.390Z,99724.70
2019-02-12T07:49:48.902Z,99731.38
2019-02-12T07:52:52.100Z,99738.94
2019-02-12T07:55:54.710Z,99741.14
2019-02-12T07:58:55.372Z,99741.98
2019-02-12T08:02:19.856Z,99736.98
2019-02-12T08:05:23.064Z,99752.09
2019-02-12T08:08:30.121Z,99751.06
2019-02-12T08:11:33.689Z,99760.52
2019-02-12T08:14:23.079Z,99754.45
2019-02-12T08:17:17.150Z,99752.55
2019-02-12T08:20:02.985Z,99766.73
2019-02-12T08:22:56.663Z,99765.97
2019-02-12T08:26:05.360Z,99768.38
2019-02-12T08:29:13.113Z,99771.72
2019-02-12T08:32:29.927Z,99772.27
2019-02-12T08:36:00.096Z,99779.13
2019-02-12T08:39:04.658Z,99785.05
2019-02-12T08:42:05.317Z,99782.92
2019-02-12T08:45:01.551Z,99785.75
2019-02-12T08:48:17.921Z,99783.76
2019-02-12T08:51:25.566Z,99774.86
2019-02-12T08:54:31.821Z,99777.56
2019-02-12T08:57:22.255Z,99773.27
2019-02-12T09:00:12.050Z,99784.98
2019-02-12T09:03:27.021Z,99789.81
2019-02-12T09:06:19.282Z,99799.12
2019-02-12T09:09:30.820Z,99798.32
2019-02-12T09:12:28.194Z,99801.05
2019-02-12T09:15:43.345Z,99802.91
2019-02-12T09:18:39.642Z,99805.44
2019-02-12T09:21:46.749Z,99811.75
2019-02-12T09:24:45.539Z,99818.89
2019-02-12T09:27:25.133Z,99814.98
2019-02-12T09:30:32.780Z,99811.73
2019-02-12T09:33:19.287Z,99821.26
2019-02-12T09:36:21.556Z,99817.19
2019-02-12T09:39:16.046Z,99819.55
2019-02-12T09:41:53.182Z,99821.16
2019-02-12T09:44:46.925Z,99815.77
2019-02-12T09:48:12.539Z,99833.71
2019-02-12T09:51:17.590Z,99831.28
2019-02-12T09:54:24.216Z,99837.09
2019-02-12T09:57:15.152Z,99839.13
2019-02-12T10:00:25.704Z,99847.64
2019-02-12T10:03:19.501Z,99847.92
2019-02-12T10:06:34.199Z,99858.22
2019-02-12T10:09:46.493Z,99858.08
2019-02-12T10:12:53.959Z,99857.55
2019-02-12T10:16:11.569Z,99854.48
2019-02-12T10:19:14.770Z,99869.13
2019-02-12T10:22:17.706Z,99870.02
2019-02-12T10:25:22.281Z,99876.78
2019-02-12T10:31:40.044Z,99878.70
2019-02-12T10:34:06.860Z,99891.69
2019-02-12T10:36:33.611Z,99886.13
2019-02-12T10:39:01.750Z,99881.25
2019-02-12T10:41:32.012Z,99882.72
2019-02-12T10:44:00.471Z,99883.52
2019-02-12T10:46:27.323Z,99898.05
2019-02-12T10:48:54.181Z,99894.70
2019-02-12T10:51:21.062Z,99899.29
2019-02-12T10:53:47.731Z,99893.63
2019-02-12T10:56:15.206Z,99901.43
2019-02-12T10:58:43.106Z,99900.20
2019-02-12T11:01:09.735Z,99909.14
2019-02-12T11:03:36.515Z,99905.30
2019-02-12T11:06:03.409Z,99910.89
2019-02-12T11:08:30.197Z,99909.80
2019-02-12T11:10:56.955Z,99908.36
2019-02-12T11:13:23.577Z,99915.34
2019-02-12T11:15:50.327Z,99914.89
2019-02-12T11:18:17.035Z,99912.57
2019-02-12T11:20:43.745Z,99907.59
2019-02-12T11:23:11.027Z,99903.52
2019-02-12T11:25:37.886Z,99903.94
2019-02-12T11:28:04.701Z,99902.14
2019-02-12T11:30:31.295Z,99904.78
2019-02-12T11:32:58.037Z,99888.93
2019-02-12T11:35:25.021Z,99900.63
2019-02-12T11:37:52.138Z,99897.53
2019-02-12T11:40:19.092Z,99901.92
2019-02-12T11:42:46.125Z,99900.42
2019-02-12T11:45:13.067Z,99896.48
2019-02-12T11:47:40.255Z,99903.89
2019-02-12T11:50:07.603Z,99901.71
2019-02-12T11:52:34.318Z,99900.33
2019-02-12T11:55:01.267Z,99898.75
2019-02-12T11:57:28.133Z,99909.48
2019-02-12T11:59:54.942Z,99909.16
2019-02-12T12:02:25.499Z,99902.27
2019-02-12T12:04:52.151Z,99911.43
2019-02-12T12:07:18.862Z,99908.23
2019-02-12T12:09:45.714Z,99915.78
2019-02-12T12:12:12.401Z,99908.10
2019-02-12T12:14:39.395Z,99911.77
2019-02-12T12:17:06.903Z,99903.38
2019-02-12T12:19:33.558Z,99907.02
2019-02-12T12:22:00.235Z,99907.09
2019-02-12T12:24:27.316Z,99907.38
2019-02-12T12:26:54.197Z,99903.14
2019-02-12T12:29:20.781Z,99896.39
2019-02-12T12:31:47.696Z,99902.73
2019-02-12T12:34:15.101Z,99902.53
2019-02-12T12:36:41.835Z,99908.10
2019-02-12T12:39:08.729Z,99903.98
2019-02-12T12:41:35.565Z,99915.28
2019-02-12T12:44:02.573Z,99913.89
2019-02-12T12:46:29.479Z,99917.03
2019-02-12T12:48:56.785Z,99926.04
2019-02-12T12:51:23.596Z,99916.36
2019-02-12T12:53:51.278Z,99916.66
2019-02-12T12:56:18.010Z,99924.53
2019-02-12T12:58:44.794Z,99925.38
2019-02-12T13:01:11.861Z,99931.23
2019-02-12T13:03:38.726Z,99931.69
2019-02-12T13:06:05.311Z,99925.23
2019-02-12T13:08:32.227Z,99926.17
2019-02-12T13:10:59.017Z,99918.00
2019-02-12T13:13:31.685Z,99924.00
2019-02-12T13:15:58.662Z,99926.54
2019-02-12T13:18:26.159Z,99913.41
2019-02-12T13:20:53.130Z,99917.17
2019-02-12T13:23:20.031Z,99915.20
2019-02-12T13:25:47.466Z,99904.44
2019-02-12T13:28:14.285Z,99924.23
2019-02-12T13:30:40.939Z,99925.38
2019-02-12T13:33:07.872Z,99923.42
2019-02-12T13:35:35.741Z,99922.72
2019-02-12T13:38:02.733Z,99931.44
2019-02-12T13:40:29.498Z,99928.84
2019-02-12T13:42:56.253Z,99925.67
2019-02-12T13:45:22.973Z,99928.66
2019-02-12T13:47:50.111Z,99927.36
2019-02-12T13:50:18.595Z,99932.53
2019-02-12T13:52:45.397Z,99931.28
2019-02-12T13:55:17.278Z,99926.83
2019-02-12T13:57:41.335Z,99932.48
2019-02-12T14:00:09.847Z,99940.30
2019-02-12T14:02:36.656Z,99941.34
2019-02-12T14:05:04.559Z,99947.98
2019-02-12T14:07:31.713Z,99944.66
2019-02-12T14:09:59.129Z,99954.48
2019-02-12T14:12:26.140Z,99956.08
2019-02-12T14:14:53.032Z,99950.79
2019-02-12T14:17:20.422Z,99955.48
2019-02-12T14:19:47.575Z,99961.84
2019-02-12T14:22:14.677Z,99958.97
2019-02-12T14:24:42.014Z,99963.87
2019-02-12T14:27:09.607Z,99967.75
2019-02-12T14:29:36.814Z,99965.48
2019-02-12T14:32:04.002Z,99978.11
2019-02-12T14:34:31.152Z,99975.05
2019-02-12T14:36:57.721Z,99981.53
2019-02-12T14:39:24.537Z,99981.38
2019-02-12T14:41:51.538Z,99977.67
2019-02-12T14:44:18.370Z,99978.33
2019-02-12T14:46:45.437Z,99989.29
2019-02-12T14:49:12.140Z,99985.84
2019-02-12T14:51:38.753Z,99988.84
2019-02-12T14:54:07.229Z,99993.58
2019-02-12T14:56:34.275Z,99994.75
2019-02-12T14:59:00.973Z,99990.20
2019-02-12T15:01:27.900Z,100004.06
2019-02-12T15:03:54.823Z,100000.94
2019-02-12T15:06:21.976Z,100003.86
2019-02-12T15:08:48.898Z,100009.94
2019-02-12T15:11:15.538Z,100009.45
2019-02-12T15:13:42.404Z,100017.22
2019-02-12T15:16:09.100Z,100015.27
2019-02-12T15:18:35.741Z,100017.09
2019-02-12T15:21:02.923Z,100013.70
2019-02-12T15:23:29.618Z,100019.38
2019-02-12T15:25:56.267Z,100015.25
2019-02-12T15:28:23.405Z,100021.59
2019-02-12T15:30:50.208Z,100017.52
2019-02-12T15:33:17.394Z,100015.23
2019-02-12T15:35:44.579Z,100021.73
2019-02-12T15:38:11.294Z,100023.48
2019-02-12T15:40:37.859Z,100023.87
2019-02-12T15:43:04.861Z,100026.94
2019-02-12T15:45:31.638Z,100025.25
2019-02-12T15:47:58.741Z,100018.19
2019-02-12T15:50:28.185Z,100029.08
2019-02-12T15:52:55.331Z,100027.84
2019-02-12T15:55:22.748Z,100028.23
2019-02-12T15:57:52.081Z,100024.75
2019-02-12T16:00:20.851Z,100032.98
2019-02-12T16:02:47.770Z,100038.08
2019-02-12T16:05:14.638Z,100046.20
2019-02-12T16:07:47.438Z,100044.37
2019-02-12T16:10:19.407Z,100050.87
2019-02-12T16:12:48.646Z,100050.87
2019-02-12T16:15:15.761Z,100048.62
2019-02-12T16:17:45.709Z,100053.64
2019-02-12T16:20:17.221Z,100057.05
2019-02-12T16:22:45.176Z,100068.72
2019-02-12T16:25:19.137Z,100063.41
2019-02-12T16:27:47.234Z,100065.97
2019-02-12T16:30:16.424Z,100059.81
2019-02-12T16:32:48.614Z,100061.11
2019-02-12T16:35:16.938Z,100070.10
2019-02-12T16:37:46.291Z,100064.02
2019-02-12T16:40:15.866Z,100070.41
2019-02-12T16:42:43.651Z,100076.06
2019-02-12T16:45:14.362Z,100072.66
2019-02-12T16:47:41.110Z,100074.38
2019-02-12T16:50:13.989Z,100075.64
2019-02-12T16:52:44.327Z,100086.39
2019-02-12T16:55:12.647Z,100079.58
2019-02-12T16:57:40.412Z,100083.91
2019-02-12T17:00:15.499Z,100078.09
2019-02-12T17:02:43.075Z,100087.88
2019-02-12T17:05:13.002Z,100092.92
2019-02-12T17:07:39.598Z,100101.14
2019-02-12T17:10:07.189Z,100094.18
2019-02-12T17:12:34.188Z,100094.18
2019-02-12T17:15:01.582Z,100099.46
2019-02-12T17:17:28.368Z,100100.38
2019-02-12T17:19:56.149Z,100101.80
2019-02-12T17:22:22.989Z,100104.02
2019-02-12T17:24:49.720Z,100116.09
2019-02-12T17:27:16.805Z,100118.58
2019-02-12T17:29:43.685Z,100120.80
2019-02-12T17:32:11.025Z,100121.75
2019-02-12T17:34:37.984Z,100122.67
2019-02-12T17:37:04.824Z,100135.67
2019-02-12T17:39:31.771Z,100122.25
2019-02-12T17:41:59.685Z,100126.95
2019-02-12T17:44:26.740Z,100129.63
2019-02-12T17:46:53.589Z,100130.93
2019-02-12T17:49:20.886Z,100140.88
2019-02-12T17:51:47.647Z,100147.91
2019-02-12T17:54:14.622Z,100146.16
2019-02-12T17:56:41.784Z,100144.77
2019-02-12T17:59:08.539Z,100146.11
2019-02-12T18:01:35.227Z,100137.02
2019-02-12T18:04:02.663Z,100151.73
2019-02-12T18:06:30.272Z,100156.84
2019-02-12T18:08:59.428Z,100165.57
2019-02-12T18:11:26.515Z,100153.88
2019-02-12T18:13:53.790Z,100158.61
2019-02-12T18:16:20.986Z,100152.57
2019-02-12T18:18:47.940Z,100149.13
2019-02-12T18:21:15.164Z,100137.81
2019-02-12T18:23:45.650Z,100145.23
2019-02-12T18:26:15.270Z,100142.83
2019-02-12T18:28:45.579Z,100136.21
2019-02-12T18:31:13.536Z,100145.31
2019-02-12T18:33:41.762Z,100143.55
2019-02-12T18:36:11.175Z,100145.70
2019-02-12T18:38:38.162Z,100145.23
2019-02-12T18:41:04.901Z,100148.67
2019-02-12T18:43:31.736Z,100152.95
2019-02-12T18:45:58.617Z,100156.73
2019-02-12T18:48:25.159Z,100166.29
2019-02-12T18:50:51.778Z,100167.55
2019-02-12T18:53:20.834Z,100158.03
2019-02-12T18:55:47.715Z,100162.31
2019-02-12T18:58:14.285Z,100158.67
2019-02-12T19:00:46.072Z,100159.05
2019-02-12T19:03:13.609Z,100154.69
2019-02-12T19:09:39.871Z,100157.55
2019-02-12T19:12:08.047Z,100160.90
2019-02-12T19:14:44.920Z,100157.26
2019-02-12T19:17:11.866Z,100149.41
2019-02-12T19:19:39.539Z,100151.89
2019-02-12T19:22:06.792Z,100160.40
2019-02-12T19:24:33.398Z,100160.77
2019-02-12T19:27:00.397Z,100158.17
2019-02-12T19:29:32.174Z,100165.05
2019-02-12T19:33:28.525Z,100161.61
2019-02-12T19:35:59.013Z,100169.03
2019-02-12T19:38:34.580Z,100169.12
2019-02-12T19:41:02.429Z,100170.12
2019-02-12T19:43:34.845Z,100164.46
2019-02-12T19:46:08.030Z,100161.03
2019-02-12T19:48:38.840Z,100162.45
2019-02-12T19:51:05.470Z,100154.53
2019-02-12T19:53:33.035Z,100157.89
2019-02-12T19:56:07.750Z,100159.02
2019-02-12T19:58:34.371Z,100160.94
2019-02-12T20:01:01.262Z,100162.95
2019-02-12T20:03:35.610Z,100161.31
2019-02-12T20:06:06.270Z,100158.87
2019-02-12T20:08:36.050Z,100158.38
2019-02-12T20:11:04.854Z,100162.56
2019-02-12T20:13:32.916Z,100157.83
2019-02-12T20:15:59.446Z,100154.09
2019-02-12T20:18:32.802Z,100161.13
2019-02-12T20:21:11.746Z,100159.98
2019-02-12T20:23:47.981Z,100162.03
2019-02-12T20:26:20.091Z,100175.58
2019-02-12T20:28:46.663Z,100165.44
2019-02-12T20:31:44.308Z,100167.52
2019-02-12T20:34:11.427Z,100162.23
2019-02-12T20:36:39.268Z,100163.31
2019-02-12T20:39:08.688Z,100166.27
2019-02-12T20:41:35.367Z,100161.18
2019-02-12T20:44:03.001Z,100160.72
2019-02-12T20:46:30.889Z,100159.93
2019-02-12T20:49:00.046Z,100162.48
2019-02-12T20:51:32.759Z,100168.17
2019-02-12T20:54:04.416Z,100159.05
2019-02-12T20:56:31.108Z,100174.84
2019-02-12T20:58:58.107Z,100181.80
2019-02-12T21:01:24.936Z,100192.23
2019-02-12T21:03:51.925Z,100189.68
2019-02-12T21:06:19.437Z,100193.94
2019-02-12T21:08:47.942Z,100193.48
2019-02-12T21:11:14.711Z,100188.34
2019-02-12T21:13:41.634Z,100205.35
2019-02-12T21:16:09.203Z,100199.74
2019-02-12T21:18:35.851Z,100203.35
2019-02-12T21:21:02.487Z,100211.19
2019-02-12T21:23:29.471Z,100212.90
2019-02-12T21:25:56.101Z,100214.81
2019-02-12T21:28:23.703Z,100221.38
2019-02-12T21:30:50.445Z,100216.75
2019-02-12T21:33:18.649Z,100216.33
2019-02-12T21:35:45.805Z,100219.52
2019-02-12T21:38:15.439Z,100213.50
2019-02-12T21:40:42.343Z,100217.86
2019-02-12T21:43:09.057Z,100205.09
2019-02-12T21:45:35.637Z,100198.74
2019-02-12T21:48:02.552Z,100197.35
2019-02-12T21:50:29.658Z,100206.12
2019-02-12T21:52:56.194Z,100203.19
2019-02-12T21:55:23.086Z,100204.86
2019-02-12T21:57:50.084Z,100208.25
2019-02-12T22:00:16.751Z,100209.13
2019-02-12T22:02:43.484Z,100209.45
2019-02-12T22:05:10.501Z,100208.91
2019-02-12T22:07:37.070Z,100215.02
2019-02-12T22:10:05.217Z,100216.36
2019-02-12T22:12:32.172Z,100212.47
2019-02-12T22:14:58.727Z,100217.11
2019-02-12T22:17:25.250Z,100213.08
2019-02-12T22:19:52.167Z,100209.42
2019-02-12T22:22:18.820Z,100210.11
2019-02-12T22:24:45.376Z,100206.55
2019-02-12T22:27:12.007Z,100215.73
2019-02-12T22:29:38.968Z,100210.86
2019-02-12T22:32:05.509Z,100197.98
2019-02-12T22:34:32.020Z,100207.95
2019-02-12T22:36:58.656Z,100213.55
2019-02-12T22:39:25.468Z,100217.91
2019-02-12T22:41:52.364Z,100230.47
2019-02-12T22:44:19.343Z,100225.33
2019-02-12T22:46:46.248Z,100223.70
2019-02-12T22:49:13.208Z,100225.83
2019-02-12T22:51:40.065Z,100222.40
2019-02-12T22:54:07.162Z,100229.03
2019-02-12T22:56:34.037Z,100219.48
2019-02-12T22:59:00.988Z,100223.00
2019-02-12T23:01:35.799Z,100227.39
2019-02-12T23:04:03.573Z,100228.05
2019-02-12T23:06:30.413Z,100235.31
2019-02-12T23:08:57.351Z,100232.35
2019-02-12T23:11:24.299Z,100236.19
2019-02-12T23:13:51.142Z,100234.34
2019-02-12T23:16:17.732Z,100244.16
2019-02-12T23:18:46.300Z,100243.50
2019-02-12T23:21:12.981Z,100249.94
2019-02-12T23:23:39.764Z,100259.43
2019-02-12T23:26:06.552Z,100262.18
2019-02-12T23:28:33.048Z,100258.91
2019-02-12T23:30:59.962Z,100261.31
2019-02-12T23:33:26.498Z,100254.64
2019-02-12T23:35:53.137Z,100260.33
2019-02-12T23:38:19.786Z,100257.59
2019-02-12T23:40:46.447Z,100249.23
2019-02-12T23:43:13.155Z,100252.71
2019-02-12T23:45:39.738Z,100263.36
2019-02-12T23:48:06.375Z,100260.35
2019-02-12T23:50:32.924Z,100263.50
2019-02-12T23:52:59.663Z,100259.20
2019-02-12T23:55:27.577Z,100257.91
2019-02-12T23:57:54.621Z,100258.37
